sensor_id;sensor_type;location;lat;lon;timestamp;P1;durP1;ratioP1;P2;durP2;ratioP2
18433;SDS011;9344;52.294;13.626;2022-08-21T00:02:13;6.47;;;2.83;;
18433;SDS011;9344;52.294;13.626;2022-08-21T00:04:41;5.57;;;2.60;;
18433;SDS011;9344;52.294;13.626;2022-08-21T00:07:08;6.30;;;2.90;;
18433;SDS011;9344;52.294;13.626;2022-08-21T00:09:35;5.43;;;2.63;;
18433;SDS011;9344;52.294;13.626;2022-08-21T00:12:02;6.00;;;2.55;;
18433;SDS011;9344;52.294;13.626;2022-08-21T00:14:30;5.03;;;2.47;;
18433;SDS011;9344;52.294;13.626;2022-08-21T00:16:57;6.25;;;3.08;;
18433;SDS011;9344;52.294;13.626;2022-08-21T00:19:24;6.60;;;3.03;;
18433;SDS011;9344;52.294;13.626;2022-08-21T00:21:53;6.13;;;3.05;;
18433;SDS011;9344;52.294;13.626;2022-08-21T00:24:21;6.57;;;3.17;;
18433;SDS011;9344;52.294;13.626;2022-08-21T00:26:48;5.25;;;2.80;;
18433;SDS011;9344;52.294;13.626;2022-08-21T00:29:15;6.53;;;3.10;;
18433;SDS011;9344;52.294;13.626;2022-08-21T00:31:42;6.38;;;3.08;;
18433;SDS011;9344;52.294;13.626;2022-08-21T00:34:10;6.50;;;3.28;;
18433;SDS011;9344;52.294;13.626;2022-08-21T00:36:37;6.47;;;2.58;;
18433;SDS011;9344;52.294;13.626;2022-08-21T00:39:05;6.55;;;2.95;;
18433;SDS011;9344;52.294;13.626;2022-08-21T00:41:33;5.53;;;3.08;;
18433;SDS011;9344;52.294;13.626;2022-08-21T00:44:01;5.97;;;2.70;;
18433;SDS011;9344;52.294;13.626;2022-08-21T00:46:28;5.88;;;2.65;;
18433;SDS011;9344;52.294;13.626;2022-08-21T00:48:55;5.82;;;2.85;;
18433;SDS011;9344;52.294;13.626;2022-08-21T00:51:23;7.18;;;2.97;;
18433;SDS011;9344;52.294;13.626;2022-08-21T00:53:54;6.25;;;3.00;;
18433;SDS011;9344;52.294;13.626;2022-08-21T00:56:26;5.82;;;2.88;;
18433;SDS011;9344;52.294;13.626;2022-08-21T00:58:53;5.68;;;2.65;;
18433;SDS011;9344;52.294;13.626;2022-08-21T01:01:23;8.52;;;3.13;;
18433;SDS011;9344;52.294;13.626;2022-08-21T01:03:50;6.05;;;3.08;;
18433;SDS011;9344;52.294;13.626;2022-08-21T01:06:17;6.53;;;3.10;;
18433;SDS011;9344;52.294;13.626;2022-08-21T01:08:43;7.70;;;3.33;;
18433;SDS011;9344;52.294;13.626;2022-08-21T01:11:10;8.13;;;3.20;;
18433;SDS011;9344;52.294;13.626;2022-08-21T01:13:38;4.50;;;2.80;;
18433;SDS011;9344;52.294;13.626;2022-08-21T01:16:10;6.40;;;3.22;;
18433;SDS011;9344;52.294;13.626;2022-08-21T01:18:39;7.55;;;2.72;;
18433;SDS011;9344;52.294;13.626;2022-08-21T01:21:08;6.63;;;3.10;;
18433;SDS011;9344;52.294;13.626;2022-08-21T01:23:36;7.85;;;3.08;;
18433;SDS011;9344;52.294;13.626;2022-08-21T01:26:05;7.13;;;3.10;;
18433;SDS011;9344;52.294;13.626;2022-08-21T01:28:34;6.47;;;2.60;;
18433;SDS011;9344;52.294;13.626;2022-08-21T01:31:04;6.38;;;3.00;;
18433;SDS011;9344;52.294;13.626;2022-08-21T01:33:33;6.78;;;3.05;;
18433;SDS011;9344;52.294;13.626;2022-08-21T01:35:59;8.23;;;2.90;;
18433;SDS011;9344;52.294;13.626;2022-08-21T01:38:27;5.20;;;2.58;;
18433;SDS011;9344;52.294;13.626;2022-08-21T01:40:54;5.63;;;3.10;;
18433;SDS011;9344;52.294;13.626;2022-08-21T01:43:20;4.85;;;2.65;;
18433;SDS011;9344;52.294;13.626;2022-08-21T01:45:47;5.45;;;2.90;;
18433;SDS011;9344;52.294;13.626;2022-08-21T01:48:13;5.30;;;3.30;;
18433;SDS011;9344;52.294;13.626;2022-08-21T01:50:40;6.13;;;2.90;;
18433;SDS011;9344;52.294;13.626;2022-08-21T01:53:07;5.72;;;2.67;;
18433;SDS011;9344;52.294;13.626;2022-08-21T01:55:34;5.75;;;2.47;;
18433;SDS011;9344;52.294;13.626;2022-08-21T01:58:01;7.22;;;2.58;;
18433;SDS011;9344;52.294;13.626;2022-08-21T02:00:28;5.88;;;2.97;;
18433;SDS011;9344;52.294;13.626;2022-08-21T02:02:54;5.28;;;3.00;;
18433;SDS011;9344;52.294;13.626;2022-08-21T02:05:21;5.00;;;2.83;;
18433;SDS011;9344;52.294;13.626;2022-08-21T02:07:48;5.35;;;2.78;;
18433;SDS011;9344;52.294;13.626;2022-08-21T02:10:17;7.15;;;2.80;;
18433;SDS011;9344;52.294;13.626;2022-08-21T02:12:47;5.78;;;2.63;;
18433;SDS011;9344;52.294;13.626;2022-08-21T02:15:14;5.78;;;2.85;;
18433;SDS011;9344;52.294;13.626;2022-08-21T02:17:42;5.47;;;3.00;;
18433;SDS011;9344;52.294;13.626;2022-08-21T02:20:11;5.72;;;2.88;;
18433;SDS011;9344;52.294;13.626;2022-08-21T02:22:48;3.72;;;2.55;;
18433;SDS011;9344;52.294;13.626;2022-08-21T02:25:15;5.68;;;2.67;;
18433;SDS011;9344;52.294;13.626;2022-08-21T02:27:43;4.15;;;2.25;;
18433;SDS011;9344;52.294;13.626;2022-08-21T02:30:14;5.00;;;2.45;;
18433;SDS011;9344;52.294;13.626;2022-08-21T02:32:42;5.88;;;3.08;;
18433;SDS011;9344;52.294;13.626;2022-08-21T02:35:08;4.35;;;2.58;;
18433;SDS011;9344;52.294;13.626;2022-08-21T02:37:42;4.07;;;2.47;;
18433;SDS011;9344;52.294;13.626;2022-08-21T02:40:10;7.50;;;2.78;;
18433;SDS011;9344;52.294;13.626;2022-08-21T02:42:37;6.03;;;2.85;;
18433;SDS011;9344;52.294;13.626;2022-08-21T02:45:05;4.65;;;2.75;;
18433;SDS011;9344;52.294;13.626;2022-08-21T02:47:33;4.72;;;2.72;;
18433;SDS011;9344;52.294;13.626;2022-08-21T02:50:00;7.05;;;2.88;;
18433;SDS011;9344;52.294;13.626;2022-08-21T02:52:26;7.05;;;2.92;;
18433;SDS011;9344;52.294;13.626;2022-08-21T02:54:53;4.22;;;2.53;;
18433;SDS011;9344;52.294;13.626;2022-08-21T02:57:19;5.38;;;3.00;;
18433;SDS011;9344;52.294;13.626;2022-08-21T02:59:46;5.32;;;2.83;;
18433;SDS011;9344;52.294;13.626;2022-08-21T03:02:12;5.90;;;2.78;;
18433;SDS011;9344;52.294;13.626;2022-08-21T03:04:40;8.43;;;3.30;;
18433;SDS011;9344;52.294;13.626;2022-08-21T03:07:07;5.88;;;2.95;;
18433;SDS011;9344;52.294;13.626;2022-08-21T03:09:33;6.38;;;3.08;;
18433;SDS011;9344;52.294;13.626;2022-08-21T03:12:00;6.70;;;3.03;;
18433;SDS011;9344;52.294;13.626;2022-08-21T03:14:27;4.65;;;2.25;;
18433;SDS011;9344;52.294;13.626;2022-08-21T03:16:53;6.03;;;3.10;;
18433;SDS011;9344;52.294;13.626;2022-08-21T03:19:20;6.70;;;2.97;;
18433;SDS011;9344;52.294;13.626;2022-08-21T03:21:47;8.38;;;3.10;;
18433;SDS011;9344;52.294;13.626;2022-08-21T03:24:14;5.85;;;2.65;;
18433;SDS011;9344;52.294;13.626;2022-08-21T03:26:40;4.78;;;2.40;;
18433;SDS011;9344;52.294;13.626;2022-08-21T03:29:07;5.68;;;2.50;;
18433;SDS011;9344;52.294;13.626;2022-08-21T03:31:33;5.57;;;2.75;;
18433;SDS011;9344;52.294;13.626;2022-08-21T03:34:00;4.35;;;2.38;;
18433;SDS011;9344;52.294;13.626;2022-08-21T03:36:26;5.55;;;2.35;;
18433;SDS011;9344;52.294;13.626;2022-08-21T03:38:54;4.30;;;2.50;;
18433;SDS011;9344;52.294;13.626;2022-08-21T03:41:21;5.20;;;2.65;;
18433;SDS011;9344;52.294;13.626;2022-08-21T03:43:47;5.10;;;2.47;;
18433;SDS011;9344;52.294;13.626;2022-08-21T03:46:14;5.63;;;2.42;;
18433;SDS011;9344;52.294;13.626;2022-08-21T03:48:40;5.18;;;2.60;;
18433;SDS011;9344;52.294;13.626;2022-08-21T03:51:07;5.70;;;2.47;;
18433;SDS011;9344;52.294;13.626;2022-08-21T03:53:34;6.10;;;2.40;;
18433;SDS011;9344;52.294;13.626;2022-08-21T03:56:03;4.35;;;2.33;;
18433;SDS011;9344;52.294;13.626;2022-08-21T03:58:30;3.80;;;2.15;;
18433;SDS011;9344;52.294;13.626;2022-08-21T04:00:58;3.75;;;1.95;;
18433;SDS011;9344;52.294;13.626;2022-08-21T04:03:26;4.07;;;2.30;;
18433;SDS011;9344;52.294;13.626;2022-08-21T04:05:54;4.28;;;2.20;;
18433;SDS011;9344;52.294;13.626;2022-08-21T04:08:20;7.07;;;2.15;;
18433;SDS011;9344;52.294;13.626;2022-08-21T04:10:48;5.28;;;2.63;;
18433;SDS011;9344;52.294;13.626;2022-08-21T04:13:18;4.15;;;2.35;;
18433;SDS011;9344;52.294;13.626;2022-08-21T04:15:45;7.57;;;2.20;;
18433;SDS011;9344;52.294;13.626;2022-08-21T04:18:12;5.28;;;2.53;;
18433;SDS011;9344;52.294;13.626;2022-08-21T04:20:39;5.57;;;2.60;;
18433;SDS011;9344;52.294;13.626;2022-08-21T04:23:07;5.70;;;2.80;;
18433;SDS011;9344;52.294;13.626;2022-08-21T04:25:34;6.75;;;2.80;;
18433;SDS011;9344;52.294;13.626;2022-08-21T04:28:01;4.55;;;2.40;;
18433;SDS011;9344;52.294;13.626;2022-08-21T04:30:30;3.75;;;2.42;;
18433;SDS011;9344;52.294;13.626;2022-08-21T04:32:57;8.27;;;2.90;;
18433;SDS011;9344;52.294;13.626;2022-08-21T04:35:25;6.03;;;2.95;;
18433;SDS011;9344;52.294;13.626;2022-08-21T04:37:52;7.70;;;2.67;;
18433;SDS011;9344;52.294;13.626;2022-08-21T04:40:19;8.43;;;2.72;;
18433;SDS011;9344;52.294;13.626;2022-08-21T04:42:47;4.95;;;2.47;;
18433;SDS011;9344;52.294;13.626;2022-08-21T04:45:16;4.88;;;2.45;;
18433;SDS011;9344;52.294;13.626;2022-08-21T04:47:47;6.57;;;2.53;;
18433;SDS011;9344;52.294;13.626;2022-08-21T04:50:15;4.78;;;2.20;;
18433;SDS011;9344;52.294;13.626;2022-08-21T04:52:41;3.80;;;2.15;;
18433;SDS011;9344;52.294;13.626;2022-08-21T04:55:09;5.95;;;2.20;;
18433;SDS011;9344;52.294;13.626;2022-08-21T04:57:36;3.40;;;2.08;;
18433;SDS011;9344;52.294;13.626;2022-08-21T05:00:04;4.85;;;2.58;;
18433;SDS011;9344;52.294;13.626;2022-08-21T05:02:32;3.78;;;2.28;;
18433;SDS011;9344;52.294;13.626;2022-08-21T05:05:00;4.00;;;2.38;;
18433;SDS011;9344;52.294;13.626;2022-08-21T05:07:28;3.80;;;1.95;;
18433;SDS011;9344;52.294;13.626;2022-08-21T05:09:56;2.90;;;2.08;;
18433;SDS011;9344;52.294;13.626;2022-08-21T05:12:24;3.40;;;2.15;;
18433;SDS011;9344;52.294;13.626;2022-08-21T05:14:51;4.15;;;2.13;;
18433;SDS011;9344;52.294;13.626;2022-08-21T05:17:18;4.05;;;2.40;;
18433;SDS011;9344;52.294;13.626;2022-08-21T05:19:44;5.40;;;1.90;;
18433;SDS011;9344;52.294;13.626;2022-08-21T05:22:18;6.28;;;2.28;;
18433;SDS011;9344;52.294;13.626;2022-08-21T05:24:45;4.32;;;2.08;;
18433;SDS011;9344;52.294;13.626;2022-08-21T05:27:11;3.70;;;2.10;;
18433;SDS011;9344;52.294;13.626;2022-08-21T05:29:38;4.25;;;2.10;;
18433;SDS011;9344;52.294;13.626;2022-08-21T05:32:07;5.47;;;2.25;;
18433;SDS011;9344;52.294;13.626;2022-08-21T05:34:34;3.83;;;2.38;;
18433;SDS011;9344;52.294;13.626;2022-08-21T05:37:01;3.03;;;1.92;;
18433;SDS011;9344;52.294;13.626;2022-08-21T05:39:29;3.60;;;2.08;;
18433;SDS011;9344;52.294;13.626;2022-08-21T05:41:55;2.80;;;1.90;;
18433;SDS011;9344;52.294;13.626;2022-08-21T05:44:22;3.92;;;1.90;;
18433;SDS011;9344;52.294;13.626;2022-08-21T05:46:49;4.97;;;2.15;;
18433;SDS011;9344;52.294;13.626;2022-08-21T05:49:15;4.30;;;2.08;;
18433;SDS011;9344;52.294;13.626;2022-08-21T05:51:42;4.20;;;2.00;;
18433;SDS011;9344;52.294;13.626;2022-08-21T05:54:08;5.72;;;2.20;;
18433;SDS011;9344;52.294;13.626;2022-08-21T05:56:37;4.03;;;2.00;;
18433;SDS011;9344;52.294;13.626;2022-08-21T05:59:03;3.25;;;1.80;;
18433;SDS011;9344;52.294;13.626;2022-08-21T06:01:30;5.75;;;2.33;;
18433;SDS011;9344;52.294;13.626;2022-08-21T06:03:56;6.38;;;2.03;;
18433;SDS011;9344;52.294;13.626;2022-08-21T06:06:23;5.00;;;2.00;;
18433;SDS011;9344;52.294;13.626;2022-08-21T06:08:49;5.63;;;2.30;;
18433;SDS011;9344;52.294;13.626;2022-08-21T06:11:17;3.45;;;1.92;;
18433;SDS011;9344;52.294;13.626;2022-08-21T06:13:45;4.32;;;2.17;;
18433;SDS011;9344;52.294;13.626;2022-08-21T06:16:12;6.10;;;2.30;;
18433;SDS011;9344;52.294;13.626;2022-08-21T06:18:41;4.15;;;2.20;;
18433;SDS011;9344;52.294;13.626;2022-08-21T06:21:08;3.22;;;2.08;;
18433;SDS011;9344;52.294;13.626;2022-08-21T06:23:36;3.50;;;1.90;;
18433;SDS011;9344;52.294;13.626;2022-08-21T06:26:03;3.78;;;1.90;;
18433;SDS011;9344;52.294;13.626;2022-08-21T06:28:31;3.40;;;1.92;;
18433;SDS011;9344;52.294;13.626;2022-08-21T06:31:00;4.65;;;2.35;;
18433;SDS011;9344;52.294;13.626;2022-08-21T06:33:26;3.38;;;1.95;;
18433;SDS011;9344;52.294;13.626;2022-08-21T06:35:53;3.35;;;1.70;;
18433;SDS011;9344;52.294;13.626;2022-08-21T06:38:19;3.90;;;1.90;;
18433;SDS011;9344;52.294;13.626;2022-08-21T06:40:46;2.58;;;1.80;;
18433;SDS011;9344;52.294;13.626;2022-08-21T06:43:14;3.33;;;2.08;;
18433;SDS011;9344;52.294;13.626;2022-08-21T06:45:41;2.67;;;1.85;;
18433;SDS011;9344;52.294;13.626;2022-08-21T06:48:11;3.10;;;1.60;;
18433;SDS011;9344;52.294;13.626;2022-08-21T06:50:37;3.20;;;1.77;;
18433;SDS011;9344;52.294;13.626;2022-08-21T06:53:09;4.07;;;1.90;;
18433;SDS011;9344;52.294;13.626;2022-08-21T06:55:37;5.05;;;1.58;;
18433;SDS011;9344;52.294;13.626;2022-08-21T06:58:05;2.65;;;1.58;;
18433;SDS011;9344;52.294;13.626;2022-08-21T07:00:32;2.47;;;1.60;;
18433;SDS011;9344;52.294;13.626;2022-08-21T07:02:59;2.95;;;1.73;;
18433;SDS011;9344;52.294;13.626;2022-08-21T07:05:27;3.88;;;1.40;;
18433;SDS011;9344;52.294;13.626;2022-08-21T07:07:55;4.40;;;1.77;;
18433;SDS011;9344;52.294;13.626;2022-08-21T07:10:22;2.97;;;1.65;;
18433;SDS011;9344;52.294;13.626;2022-08-21T07:12:49;4.68;;;1.65;;
18433;SDS011;9344;52.294;13.626;2022-08-21T07:15:17;3.05;;;1.60;;
18433;SDS011;9344;52.294;13.626;2022-08-21T07:17:44;2.47;;;1.35;;
18433;SDS011;9344;52.294;13.626;2022-08-21T07:20:10;3.25;;;1.70;;
18433;SDS011;9344;52.294;13.626;2022-08-21T07:22:39;3.20;;;1.55;;
18433;SDS011;9344;52.294;13.626;2022-08-21T07:25:07;3.45;;;1.67;;
18433;SDS011;9344;52.294;13.626;2022-08-21T07:27:34;2.67;;;1.77;;
18433;SDS011;9344;52.294;13.626;2022-08-21T07:30:01;2.97;;;1.73;;
18433;SDS011;9344;52.294;13.626;2022-08-21T07:32:27;5.28;;;1.50;;
18433;SDS011;9344;52.294;13.626;2022-08-21T07:34:54;4.25;;;2.03;;
18433;SDS011;9344;52.294;13.626;2022-08-21T07:37:21;3.03;;;1.40;;
18433;SDS011;9344;52.294;13.626;2022-08-21T07:39:48;4.53;;;1.60;;
18433;SDS011;9344;52.294;13.626;2022-08-21T07:42:16;4.43;;;1.40;;
18433;SDS011;9344;52.294;13.626;2022-08-21T07:44:42;5.10;;;1.80;;
18433;SDS011;9344;52.294;13.626;2022-08-21T07:47:09;2.65;;;1.50;;
18433;SDS011;9344;52.294;13.626;2022-08-21T07:49:36;3.47;;;1.88;;
18433;SDS011;9344;52.294;13.626;2022-08-21T07:52:03;2.97;;;1.30;;
18433;SDS011;9344;52.294;13.626;2022-08-21T07:54:29;2.55;;;1.45;;
18433;SDS011;9344;52.294;13.626;2022-08-21T07:56:57;4.28;;;1.65;;
18433;SDS011;9344;52.294;13.626;2022-08-21T07:59:24;2.13;;;1.15;;
18433;SDS011;9344;52.294;13.626;2022-08-21T08:01:50;3.65;;;1.48;;
18433;SDS011;9344;52.294;13.626;2022-08-21T08:04:17;2.55;;;1.42;;
18433;SDS011;9344;52.294;13.626;2022-08-21T08:06:43;3.08;;;1.30;;
18433;SDS011;9344;52.294;13.626;2022-08-21T08:09:10;3.85;;;1.30;;
18433;SDS011;9344;52.294;13.626;2022-08-21T08:11:37;2.75;;;1.38;;
18433;SDS011;9344;52.294;13.626;2022-08-21T08:14:09;1.80;;;1.13;;
18433;SDS011;9344;52.294;13.626;2022-08-21T08:16:36;4.95;;;1.23;;
18433;SDS011;9344;52.294;13.626;2022-08-21T08:19:03;2.75;;;1.10;;
18433;SDS011;9344;52.294;13.626;2022-08-21T08:21:29;2.58;;;1.20;;
18433;SDS011;9344;52.294;13.626;2022-08-21T08:23:57;1.15;;;1.05;;
18433;SDS011;9344;52.294;13.626;2022-08-21T08:26:23;3.60;;;1.20;;
18433;SDS011;9344;52.294;13.626;2022-08-21T08:28:50;1.45;;;0.80;;
18433;SDS011;9344;52.294;13.626;2022-08-21T08:31:18;2.20;;;1.00;;
18433;SDS011;9344;52.294;13.626;2022-08-21T08:33:45;1.80;;;0.98;;
18433;SDS011;9344;52.294;13.626;2022-08-21T08:36:12;1.30;;;0.90;;
18433;SDS011;9344;52.294;13.626;2022-08-21T08:38:40;3.17;;;1.10;;
18433;SDS011;9344;52.294;13.626;2022-08-21T08:41:08;5.82;;;1.05;;
18433;SDS011;9344;52.294;13.626;2022-08-21T08:43:38;4.22;;;1.02;;
18433;SDS011;9344;52.294;13.626;2022-08-21T08:46:09;1.70;;;1.00;;
18433;SDS011;9344;52.294;13.626;2022-08-21T08:48:43;1.98;;;0.90;;
18433;SDS011;9344;52.294;13.626;2022-08-21T08:51:14;2.63;;;0.90;;
18433;SDS011;9344;52.294;13.626;2022-08-21T08:53:47;1.60;;;0.80;;
18433;SDS011;9344;52.294;13.626;2022-08-21T08:56:26;1.33;;;0.82;;
18433;SDS011;9344;52.294;13.626;2022-08-21T08:58:55;1.85;;;0.93;;
18433;SDS011;9344;52.294;13.626;2022-08-21T09:01:26;1.60;;;0.73;;
18433;SDS011;9344;52.294;13.626;2022-08-21T09:03:54;2.60;;;0.90;;
18433;SDS011;9344;52.294;13.626;2022-08-21T09:06:27;1.95;;;0.80;;
18433;SDS011;9344;52.294;13.626;2022-08-21T09:09:02;1.00;;;0.70;;
18433;SDS011;9344;52.294;13.626;2022-08-21T09:11:42;1.67;;;1.00;;
18433;SDS011;9344;52.294;13.626;2022-08-21T09:14:16;1.00;;;0.80;;
18433;SDS011;9344;52.294;13.626;2022-08-21T09:16:54;0.80;;;0.70;;
18433;SDS011;9344;52.294;13.626;2022-08-21T09:19:36;1.50;;;0.95;;
18433;SDS011;9344;52.294;13.626;2022-08-21T09:22:15;0.98;;;0.70;;
18433;SDS011;9344;52.294;13.626;2022-08-21T09:24:50;1.73;;;0.70;;
18433;SDS011;9344;52.294;13.626;2022-08-21T09:27:26;1.10;;;0.75;;
18433;SDS011;9344;52.294;13.626;2022-08-21T09:29:57;1.13;;;0.70;;
18433;SDS011;9344;52.294;13.626;2022-08-21T09:32:23;1.55;;;0.95;;
18433;SDS011;9344;52.294;13.626;2022-08-21T09:34:58;1.25;;;0.82;;
18433;SDS011;9344;52.294;13.626;2022-08-21T09:37:26;1.35;;;0.88;;
18433;SDS011;9344;52.294;13.626;2022-08-21T09:39:54;3.15;;;0.75;;
18433;SDS011;9344;52.294;13.626;2022-08-21T09:42:24;1.45;;;0.70;;
18433;SDS011;9344;52.294;13.626;2022-08-21T09:45:04;1.35;;;0.85;;
18433;SDS011;9344;52.294;13.626;2022-08-21T09:47:33;0.75;;;0.75;;
18433;SDS011;9344;52.294;13.626;2022-08-21T09:50:08;1.58;;;0.85;;
18433;SDS011;9344;52.294;13.626;2022-08-21T09:52:41;1.77;;;0.80;;
18433;SDS011;9344;52.294;13.626;2022-08-21T09:55:13;1.23;;;0.60;;
18433;SDS011;9344;52.294;13.626;2022-08-21T09:58:12;0.80;;;0.70;;
18433;SDS011;9344;52.294;13.626;2022-08-21T10:00:38;1.60;;;0.70;;
18433;SDS011;9344;52.294;13.626;2022-08-21T10:03:15;1.95;;;0.80;;
18433;SDS011;9344;52.294;13.626;2022-08-21T10:05:53;1.88;;;0.68;;
18433;SDS011;9344;52.294;13.626;2022-08-21T10:08:23;1.85;;;0.80;;
18433;SDS011;9344;52.294;13.626;2022-08-21T10:10:53;2.35;;;0.60;;
18433;SDS011;9344;52.294;13.626;2022-08-21T10:13:24;1.83;;;0.60;;
18433;SDS011;9344;52.294;13.626;2022-08-21T10:16:02;2.35;;;0.75;;
18433;SDS011;9344;52.294;13.626;2022-08-21T10:18:52;1.23;;;0.70;;
18433;SDS011;9344;52.294;13.626;2022-08-21T10:21:30;1.88;;;0.68;;
18433;SDS011;9344;52.294;13.626;2022-08-21T10:24:05;1.50;;;0.63;;
18433;SDS011;9344;52.294;13.626;2022-08-21T10:26:43;1.30;;;0.60;;
18433;SDS011;9344;52.294;13.626;2022-08-21T10:29:21;1.48;;;0.80;;
18433;SDS011;9344;52.294;13.626;2022-08-21T10:31:56;5.05;;;0.80;;
18433;SDS011;9344;52.294;13.626;2022-08-21T10:34:32;0.93;;;0.70;;
18433;SDS011;9344;52.294;13.626;2022-08-21T10:37:16;3.90;;;0.93;;
18433;SDS011;9344;52.294;13.626;2022-08-21T10:39:56;2.08;;;1.00;;
18433;SDS011;9344;52.294;13.626;2022-08-21T10:42:33;1.27;;;0.60;;
18433;SDS011;9344;52.294;13.626;2022-08-21T10:45:10;2.60;;;0.80;;
18433;SDS011;9344;52.294;13.626;2022-08-21T10:47:42;2.00;;;0.80;;
18433;SDS011;9344;52.294;13.626;2022-08-21T10:50:17;1.95;;;1.00;;
18433;SDS011;9344;52.294;13.626;2022-08-21T10:53:11;2.45;;;0.77;;
18433;SDS011;9344;52.294;13.626;2022-08-21T10:55:50;4.45;;;0.90;;
18433;SDS011;9344;52.294;13.626;2022-08-21T10:58:23;1.58;;;0.88;;
18433;SDS011;9344;52.294;13.626;2022-08-21T11:00:55;3.35;;;1.10;;
18433;SDS011;9344;52.294;13.626;2022-08-21T11:03:25;1.95;;;1.00;;
18433;SDS011;9344;52.294;13.626;2022-08-21T11:05:58;1.92;;;0.88;;
18433;SDS011;9344;52.294;13.626;2022-08-21T11:08:31;1.98;;;0.85;;
18433;SDS011;9344;52.294;13.626;2022-08-21T11:11:03;2.70;;;0.93;;
18433;SDS011;9344;52.294;13.626;2022-08-21T11:13:35;0.80;;;0.63;;
18433;SDS011;9344;52.294;13.626;2022-08-21T11:16:07;2.53;;;0.90;;
18433;SDS011;9344;52.294;13.626;2022-08-21T11:18:41;0.98;;;0.70;;
18433;SDS011;9344;52.294;13.626;2022-08-21T11:21:17;1.70;;;0.73;;
18433;SDS011;9344;52.294;13.626;2022-08-21T11:23:55;3.90;;;0.98;;
18433;SDS011;9344;52.294;13.626;2022-08-21T11:26:29;1.63;;;0.80;;
18433;SDS011;9344;52.294;13.626;2022-08-21T11:29:01;1.08;;;0.63;;
18433;SDS011;9344;52.294;13.626;2022-08-21T11:31:36;1.10;;;0.73;;
18433;SDS011;9344;52.294;13.626;2022-08-21T11:34:16;3.00;;;0.70;;
18433;SDS011;9344;52.294;13.626;2022-08-21T11:36:54;2.20;;;0.90;;
18433;SDS011;9344;52.294;13.626;2022-08-21T11:39:30;1.75;;;0.80;;
18433;SDS011;9344;52.294;13.626;2022-08-21T11:42:07;2.05;;;1.00;;
18433;SDS011;9344;52.294;13.626;2022-08-21T11:44:45;1.20;;;0.90;;
18433;SDS011;9344;52.294;13.626;2022-08-21T11:47:18;2.20;;;1.05;;
18433;SDS011;9344;52.294;13.626;2022-08-21T11:49:56;1.27;;;0.85;;
18433;SDS011;9344;52.294;13.626;2022-08-21T11:52:33;1.27;;;0.70;;
18433;SDS011;9344;52.294;13.626;2022-08-21T11:55:06;1.65;;;0.82;;
18433;SDS011;9344;52.294;13.626;2022-08-21T11:57:39;2.65;;;0.75;;
18433;SDS011;9344;52.294;13.626;2022-08-21T12:00:13;2.45;;;0.93;;
18433;SDS011;9344;52.294;13.626;2022-08-21T12:02:46;2.45;;;0.80;;
18433;SDS011;9344;52.294;13.626;2022-08-21T12:05:23;1.00;;;0.80;;
18433;SDS011;9344;52.294;13.626;2022-08-21T12:07:59;1.90;;;1.00;;
18433;SDS011;9344;52.294;13.626;2022-08-21T12:10:33;1.52;;;0.70;;
18433;SDS011;9344;52.294;13.626;2022-08-21T12:13:05;2.67;;;0.80;;
18433;SDS011;9344;52.294;13.626;2022-08-21T12:15:34;2.10;;;0.80;;
18433;SDS011;9344;52.294;13.626;2022-08-21T12:18:01;1.85;;;0.75;;
18433;SDS011;9344;52.294;13.626;2022-08-21T12:20:38;1.05;;;0.60;;
18433;SDS011;9344;52.294;13.626;2022-08-21T12:23:27;1.40;;;0.90;;
18433;SDS011;9344;52.294;13.626;2022-08-21T12:26:09;1.10;;;0.77;;
18433;SDS011;9344;52.294;13.626;2022-08-21T12:28:48;2.15;;;1.10;;
18433;SDS011;9344;52.294;13.626;2022-08-21T12:31:19;1.48;;;0.73;;
18433;SDS011;9344;52.294;13.626;2022-08-21T12:33:49;1.77;;;0.95;;
18433;SDS011;9344;52.294;13.626;2022-08-21T12:36:21;1.33;;;0.70;;
18433;SDS011;9344;52.294;13.626;2022-08-21T12:38:51;0.98;;;0.80;;
18433;SDS011;9344;52.294;13.626;2022-08-21T12:41:24;2.33;;;1.00;;
18433;SDS011;9344;52.294;13.626;2022-08-21T12:43:56;1.00;;;0.73;;
18433;SDS011;9344;52.294;13.626;2022-08-21T12:46:28;2.00;;;0.80;;
18433;SDS011;9344;52.294;13.626;2022-08-21T12:49:01;2.17;;;1.13;;
18433;SDS011;9344;52.294;13.626;2022-08-21T12:51:34;2.25;;;0.80;;
18433;SDS011;9344;52.294;13.626;2022-08-21T12:54:08;2.10;;;1.00;;
18433;SDS011;9344;52.294;13.626;2022-08-21T12:56:36;1.02;;;0.60;;
18433;SDS011;9344;52.294;13.626;2022-08-21T12:59:05;1.70;;;0.80;;
18433;SDS011;9344;52.294;13.626;2022-08-21T13:01:33;1.15;;;0.80;;
18433;SDS011;9344;52.294;13.626;2022-08-21T13:04:03;1.95;;;0.65;;
18433;SDS011;9344;52.294;13.626;2022-08-21T13:06:36;1.52;;;0.60;;
18433;SDS011;9344;52.294;13.626;2022-08-21T13:09:06;1.98;;;0.90;;
18433;SDS011;9344;52.294;13.626;2022-08-21T13:11:37;1.60;;;0.60;;
18433;SDS011;9344;52.294;13.626;2022-08-21T13:14:05;2.17;;;0.65;;
18433;SDS011;9344;52.294;13.626;2022-08-21T13:16:36;0.98;;;0.60;;
18433;SDS011;9344;52.294;13.626;2022-08-21T13:19:05;1.10;;;0.80;;
18433;SDS011;9344;52.294;13.626;2022-08-21T13:21:34;1.15;;;0.70;;
18433;SDS011;9344;52.294;13.626;2022-08-21T13:26:52;0.93;;;0.50;;
18433;SDS011;9344;52.294;13.626;2022-08-21T13:29:20;1.35;;;0.70;;
18433;SDS011;9344;52.294;13.626;2022-08-21T13:31:49;0.95;;;0.60;;
18433;SDS011;9344;52.294;13.626;2022-08-21T13:34:19;0.88;;;0.70;;
18433;SDS011;9344;52.294;13.626;2022-08-21T13:36:46;2.67;;;0.88;;
18433;SDS011;9344;52.294;13.626;2022-08-21T13:39:15;1.17;;;0.90;;
18433;SDS011;9344;52.294;13.626;2022-08-21T13:41:44;1.35;;;0.70;;
18433;SDS011;9344;52.294;13.626;2022-08-21T13:44:16;1.85;;;0.63;;
18433;SDS011;9344;52.294;13.626;2022-08-21T13:46:44;2.15;;;0.77;;
18433;SDS011;9344;52.294;13.626;2022-08-21T13:49:12;1.73;;;0.80;;
18433;SDS011;9344;52.294;13.626;2022-08-21T13:51:41;1.80;;;0.65;;
18433;SDS011;9344;52.294;13.626;2022-08-21T13:54:18;2.65;;;0.77;;
18433;SDS011;9344;52.294;13.626;2022-08-21T13:56:48;1.02;;;0.60;;
18433;SDS011;9344;52.294;13.626;2022-08-21T13:59:24;0.43;;;0.40;;
18433;SDS011;9344;52.294;13.626;2022-08-21T14:01:53;1.40;;;0.55;;
18433;SDS011;9344;52.294;13.626;2022-08-21T14:04:25;0.63;;;0.50;;
18433;SDS011;9344;52.294;13.626;2022-08-21T14:06:56;2.00;;;0.70;;
18433;SDS011;9344;52.294;13.626;2022-08-21T14:09:24;1.63;;;0.75;;
18433;SDS011;9344;52.294;13.626;2022-08-21T14:11:55;1.13;;;0.43;;
18433;SDS011;9344;52.294;13.626;2022-08-21T14:14:25;1.00;;;0.60;;
18433;SDS011;9344;52.294;13.626;2022-08-21T14:16:57;1.58;;;0.50;;
18433;SDS011;9344;52.294;13.626;2022-08-21T14:19:26;0.85;;;0.50;;
18433;SDS011;9344;52.294;13.626;2022-08-21T14:21:54;2.28;;;0.50;;
18433;SDS011;9344;52.294;13.626;2022-08-21T14:24:27;1.13;;;0.60;;
18433;SDS011;9344;52.294;13.626;2022-08-21T14:26:57;2.58;;;0.60;;
18433;SDS011;9344;52.294;13.626;2022-08-21T14:29:32;1.42;;;0.70;;
18433;SDS011;9344;52.294;13.626;2022-08-21T14:32:08;2.70;;;0.60;;
18433;SDS011;9344;52.294;13.626;2022-08-21T14:34:35;0.70;;;0.50;;
18433;SDS011;9344;52.294;13.626;2022-08-21T14:37:02;1.88;;;0.70;;
18433;SDS011;9344;52.294;13.626;2022-08-21T14:39:29;0.60;;;0.50;;
18433;SDS011;9344;52.294;13.626;2022-08-21T14:41:56;1.17;;;0.68;;
18433;SDS011;9344;52.294;13.626;2022-08-21T14:44:24;3.10;;;0.65;;
18433;SDS011;9344;52.294;13.626;2022-08-21T14:46:52;0.93;;;0.60;;
18433;SDS011;9344;52.294;13.626;2022-08-21T14:49:19;1.10;;;0.60;;
18433;SDS011;9344;52.294;13.626;2022-08-21T14:51:46;1.05;;;0.60;;
18433;SDS011;9344;52.294;13.626;2022-08-21T14:54:13;1.63;;;0.60;;
18433;SDS011;9344;52.294;13.626;2022-08-21T14:56:40;1.00;;;0.50;;
18433;SDS011;9344;52.294;13.626;2022-08-21T14:59:07;1.70;;;0.65;;
18433;SDS011;9344;52.294;13.626;2022-08-21T15:01:35;1.67;;;0.70;;
18433;SDS011;9344;52.294;13.626;2022-08-21T15:04:04;2.67;;;0.73;;
18433;SDS011;9344;52.294;13.626;2022-08-21T15:06:30;0.95;;;0.80;;